Time;durP1;ratioP1;P1;durP2;ratioP2;P2;SDS_P1;SDS_P2;PMS_P1;PMS_P2;Temp;Humidity;BMP_temperature;BMP_pressure;BME280_temperature;BME280_humidity;BME280_pressure;Samples;Min_cycle;Max_cycle;Signal;HPM_P1;HPM_P2
2021/09/21 00:01:53;;;;;;;13.25;7.07;;;;;;;;;;4916065;29;20036;-63
2021/09/21 00:04:26;;;;;;;11.80;7.32;;;;;;;;;;4915615;29;20036;-73
2021/09/21 00:06:52;;;;;;;13.10;8.10;;;;;;;;;;4916037;29;20388;-72
2021/09/21 00:09:18;;;;;;;10.98;7.90;;;;;;;;;;4915904;29;20040;-62
2021/09/21 00:11:44;;;;;;;12.23;8.15;;;;;;;;;;4916175;29;20036;-74
2021/09/21 00:14:10;;;;;;;14.05;9.00;;;;;;;;;;4915860;29;20050;-75
2021/09/21 00:16:37;;;;;;;12.43;8.02;;;;;;;;;;4915603;29;20111;-64
2021/09/21 00:19:03;;;;;;;12.15;8.48;;;;;;;;;;4916046;29;20030;-63
2021/09/21 00:21:29;;;;;;;12.27;8.95;;;;;;;;;;4915620;29;20032;-69
2021/09/21 00:23:55;;;;;;;11.85;8.38;;;;;;;;;;4915770;29;20032;-63
2021/09/21 00:26:21;;;;;;;12.35;8.68;;;;;;;;;;4915536;29;20056;-63
2021/09/21 00:28:47;;;;;;;12.43;8.32;;;;;;;;;;4915384;29;20024;-63
2021/09/21 00:31:14;;;;;;;11.23;8.15;;;;;;;;;;4915571;29;20036;-62
2021/09/21 00:33:49;;;;;;;11.57;8.05;;;;;;;;;;4915527;29;20380;-63
2021/09/21 00:36:16;;;;;;;12.70;8.30;;;;;;;;;;4915302;29;20045;-63
2021/09/21 00:38:42;;;;;;;12.73;8.55;;;;;;;;;;4915828;29;20024;-74
2021/09/21 00:41:09;;;;;;;11.50;7.55;;;;;;;;;;4915727;29;20028;-63
2021/09/21 00:43:35;;;;;;;11.93;8.48;;;;;;;;;;4915179;29;20031;-73
2021/09/21 00:46:01;;;;;;;12.90;8.35;;;;;;;;;;4915125;29;20032;-62
2021/09/21 00:48:27;;;;;;;13.15;8.95;;;;;;;;;;4915266;29;20115;-66
2021/09/21 00:50:53;;;;;;;11.95;8.35;;;;;;;;;;4915059;29;20043;-66
2021/09/21 00:53:20;;;;;;;13.23;8.93;;;;;;;;;;4914913;29;20099;-64
2021/09/21 00:55:46;;;;;;;12.38;8.57;;;;;;;;;;4915189;29;20044;-64
2021/09/21 00:58:13;;;;;;;13.02;8.77;;;;;;;;;;4914986;29;20156;-68
2021/09/21 01:00:39;;;;;;;14.38;8.50;;;;;;;;;;4914866;29;20374;-64
2021/09/21 01:03:05;;;;;;;12.60;9.00;;;;;;;;;;4915122;29;20110;-72
2021/09/21 01:05:33;;;;;;;12.55;8.85;;;;;;;;;;4914920;29;20089;-72
2021/09/21 01:07:59;;;;;;;13.23;9.10;;;;;;;;;;4914934;29;20016;-70
2021/09/21 01:10:28;;;;;;;13.57;9.40;;;;;;;;;;4914951;29;20060;-63
2021/09/21 01:12:54;;;;;;;14.82;9.20;;;;;;;;;;4914850;29;20024;-64
2021/09/21 01:15:20;;;;;;;15.20;8.68;;;;;;;;;;4914948;29;20084;-63
2021/09/21 01:17:47;;;;;;;12.75;9.07;;;;;;;;;;4914956;29;20028;-64
2021/09/21 01:20:14;;;;;;;15.00;10.13;;;;;;;;;;4914939;29;20079;-63
2021/09/21 01:22:40;;;;;;;15.00;10.30;;;;;;;;;;4914841;29;20043;-69
2021/09/21 01:25:07;;;;;;;13.55;9.10;;;;;;;;;;4915032;29;20028;-75
2021/09/21 01:27:33;;;;;;;14.77;10.07;;;;;;;;;;4914993;29;20112;-64
2021/09/21 01:30:00;;;;;;;15.05;10.20;;;;;;;;;;4914812;29;20472;-74
2021/09/21 01:32:26;;;;;;;14.35;10.15;;;;;;;;;;4914876;29;20032;-65
2021/09/21 01:34:52;;;;;;;14.15;9.88;;;;;;;;;;4917934;29;20047;-67
2021/09/21 01:37:19;;;;;;;15.73;9.15;;;;;;;;;;4918897;29;20130;-64
2021/09/21 01:39:45;;;;;;;13.80;9.98;;;;;;;;;;4918529;29;20056;-63
2021/09/21 01:42:11;;;;;;;11.15;8.15;;;;;;;;;;4918759;29;20058;-70
2021/09/21 01:44:37;;;;;;;14.57;8.38;;;;;;;;;;4918748;29;20110;-63
2021/09/21 01:47:05;;;;;;;12.35;8.15;;;;;;;;;;4918311;29;20028;-67
2021/09/21 01:49:48;;;;;;;12.90;7.72;;;;;;;;;;4918359;29;20496;-64
2021/09/21 01:52:22;;;;;;;11.70;8.10;;;;;;;;;;4918508;29;20032;-75
2021/09/21 02:00:18;;;;;;;15.55;8.65;;;;;;;;;;4918429;29;20142;-66
2021/09/21 02:02:44;;;;;;;14.38;8.75;;;;;;;;;;4920066;29;20028;-65
2021/09/21 02:05:10;;;;;;;15.02;7.72;;;;;;;;;;4919625;29;20082;-71
2021/09/21 02:07:37;;;;;;;12.82;7.75;;;;;;;;;;4918140;29;20033;-64
2021/09/21 02:10:03;;;;;;;12.32;7.78;;;;;;;;;;4918336;29;20087;-72
2021/09/21 02:12:29;;;;;;;13.15;7.90;;;;;;;;;;4918007;29;20076;-65
2021/09/21 02:14:59;;;;;;;12.52;7.75;;;;;;;;;;4917849;29;20035;-65
2021/09/21 02:17:25;;;;;;;12.85;8.48;;;;;;;;;;4917788;29;20040;-75
2021/09/21 02:19:51;;;;;;;15.70;8.15;;;;;;;;;;4918235;29;20070;-64
2021/09/21 02:22:17;;;;;;;13.63;8.13;;;;;;;;;;4918102;29;20020;-63
2021/09/21 02:24:43;;;;;;;13.68;8.10;;;;;;;;;;4917997;29;20056;-73
2021/09/21 02:27:09;;;;;;;13.20;8.20;;;;;;;;;;4918015;29;20028;-64
2021/09/21 02:29:35;;;;;;;12.43;8.13;;;;;;;;;;4917848;29;20087;-66
2021/09/21 02:32:01;;;;;;;14.18;7.95;;;;;;;;;;4917958;29;20028;-74
2021/09/21 02:34:27;;;;;;;13.02;7.78;;;;;;;;;;4917696;29;20044;-63
2021/09/21 02:36:53;;;;;;;12.73;8.57;;;;;;;;;;4917793;29;20044;-71
2021/09/21 02:39:19;;;;;;;11.63;8.48;;;;;;;;;;4917616;29;20039;-63
2021/09/21 02:41:45;;;;;;;12.50;7.93;;;;;;;;;;4917648;29;20031;-74
2021/09/21 02:44:11;;;;;;;12.70;7.88;;;;;;;;;;4917515;29;20059;-71
2021/09/21 02:46:37;;;;;;;12.48;8.13;;;;;;;;;;4917559;29;20039;-64
2021/09/21 02:49:03;;;;;;;13.90;8.48;;;;;;;;;;4917596;29;20028;-72
2021/09/21 02:51:30;;;;;;;14.65;8.13;;;;;;;;;;4917557;29;20034;-68
2021/09/21 02:53:56;;;;;;;13.25;8.52;;;;;;;;;;4917228;29;20028;-71
2021/09/21 02:56:22;;;;;;;10.07;7.10;;;;;;;;;;4917539;29;20043;-71
2021/09/21 02:58:48;;;;;;;13.30;7.65;;;;;;;;;;4917313;29;20917;-63
2021/09/21 03:01:14;;;;;;;14.10;8.32;;;;;;;;;;4917188;29;20515;-64
2021/09/21 03:03:48;;;;;;;10.63;7.65;;;;;;;;;;4917167;29;20028;-74
2021/09/21 03:06:33;;;;;;;13.18;7.78;;;;;;;;;;4917051;29;20138;-75
2021/09/21 03:11:50;;;;;;;13.50;7.82;;;;;;;;;;4858361;29;20487;-63
2021/09/21 03:19:35;;;;;;;14.90;8.77;;;;;;;;;;4858433;29;20033;-63
2021/09/21 03:22:01;;;;;;;12.25;7.38;;;;;;;;;;4858460;29;20366;-65
2021/09/21 03:24:27;;;;;;;13.88;8.18;;;;;;;;;;4858542;29;20037;-63
2021/09/21 03:26:53;;;;;;;10.00;6.78;;;;;;;;;;4858737;29;20033;-67
2021/09/21 03:29:19;;;;;;;11.43;7.63;;;;;;;;;;4858196;29;20206;-67
2021/09/21 03:31:45;;;;;;;13.38;7.70;;;;;;;;;;4858244;29;20038;-63
2021/09/21 03:34:11;;;;;;;14.82;7.10;;;;;;;;;;4842243;29;20056;-75
2021/09/21 03:36:37;;;;;;;13.65;8.65;;;;;;;;;;4858414;29;20455;-73
2021/09/21 03:39:03;;;;;;;13.65;9.07;;;;;;;;;;4858417;29;20116;-74
2021/09/21 03:41:29;;;;;;;13.38;8.32;;;;;;;;;;4858117;29;20089;-63
2021/09/21 03:43:56;;;;;;;15.10;9.73;;;;;;;;;;4842197;29;20045;-75
2021/09/21 03:46:22;;;;;;;13.82;9.40;;;;;;;;;;4858018;29;20486;-72
2021/09/21 03:48:48;;;;;;;17.10;9.77;;;;;;;;;;4885411;29;20489;-67
2021/09/21 03:51:14;;;;;;;14.85;9.05;;;;;;;;;;4916324;29;20079;-64
2021/09/21 03:53:40;;;;;;;13.50;8.88;;;;;;;;;;4916397;29;20036;-75
2021/09/21 03:56:06;;;;;;;12.50;8.32;;;;;;;;;;4916015;29;20036;-77
2021/09/21 03:58:32;;;;;;;15.13;8.63;;;;;;;;;;4916178;29;20488;-77
2021/09/21 04:00:58;;;;;;;10.98;7.53;;;;;;;;;;4916246;29;20040;-75
2021/09/21 04:03:24;;;;;;;12.05;7.80;;;;;;;;;;4916273;29;20481;-72
2021/09/21 04:05:50;;;;;;;11.25;8.02;;;;;;;;;;4915723;29;20052;-75
2021/09/21 04:08:16;;;;;;;11.85;8.13;;;;;;;;;;4916014;29;20032;-75
2021/09/21 04:10:42;;;;;;;11.93;8.23;;;;;;;;;;4915817;29;20543;-75
2021/09/21 04:13:08;;;;;;;13.02;7.57;;;;;;;;;;4916156;29;20034;-75
2021/09/21 04:15:34;;;;;;;11.70;7.68;;;;;;;;;;4915994;29;20088;-63
2021/09/21 04:18:04;;;;;;;12.43;7.95;;;;;;;;;;4915447;29;20034;-75
2021/09/21 04:20:30;;;;;;;11.98;7.57;;;;;;;;;;4915646;29;20032;-71
2021/09/21 04:22:56;;;;;;;12.43;8.13;;;;;;;;;;4915677;29;20039;-63
2021/09/21 04:25:22;;;;;;;11.32;7.70;;;;;;;;;;4916072;29;20035;-65
2021/09/21 04:27:48;;;;;;;12.80;7.82;;;;;;;;;;4915743;29;20078;-64
2021/09/21 04:30:20;;;;;;;12.73;8.40;;;;;;;;;;4915494;29;20109;-76
2021/09/21 04:32:46;;;;;;;13.50;7.85;;;;;;;;;;4915478;29;20028;-75
2021/09/21 04:35:12;;;;;;;12.30;8.68;;;;;;;;;;4915420;29;20070;-73
2021/09/21 04:37:38;;;;;;;15.27;8.15;;;;;;;;;;4915545;29;20024;-63
2021/09/21 04:40:05;;;;;;;16.20;9.10;;;;;;;;;;4915333;29;20433;-65
2021/09/21 04:42:31;;;;;;;11.70;8.38;;;;;;;;;;4915774;29;20051;-77
2021/09/21 04:44:57;;;;;;;11.90;8.45;;;;;;;;;;4915435;29;20152;-78
2021/09/21 04:47:23;;;;;;;16.23;10.45;;;;;;;;;;4915319;29;20032;-63
2021/09/21 04:49:49;;;;;;;13.88;8.07;;;;;;;;;;4915309;29;20075;-64
2021/09/21 04:52:16;;;;;;;14.07;8.27;;;;;;;;;;4915185;29;20032;-66
2021/09/21 04:54:42;;;;;;;13.27;8.40;;;;;;;;;;4915138;29;20408;-74
2021/09/21 04:57:08;;;;;;;12.25;8.35;;;;;;;;;;4913389;29;20402;-64
2021/09/21 04:59:34;;;;;;;15.77;8.93;;;;;;;;;;4915264;29;20078;-63
2021/09/21 05:02:00;;;;;;;13.98;8.80;;;;;;;;;;4914853;29;20062;-64
2021/09/21 05:04:26;;;;;;;18.27;8.85;;;;;;;;;;4914858;29;20076;-63
2021/09/21 05:06:52;;;;;;;12.75;8.80;;;;;;;;;;4915191;29;20407;-74
2021/09/21 05:09:19;;;;;;;14.88;10.30;;;;;;;;;;4914084;29;20032;-68
2021/09/21 05:11:45;;;;;;;16.08;11.73;;;;;;;;;;4915144;29;20654;-69
2021/09/21 05:14:12;;;;;;;16.80;12.07;;;;;;;;;;4915156;29;20032;-73
2021/09/21 05:16:38;;;;;;;17.88;11.63;;;;;;;;;;4914930;29;20028;-73
2021/09/21 05:19:07;;;;;;;15.88;11.15;;;;;;;;;;4915063;29;20028;-67
2021/09/21 05:21:33;;;;;;;18.38;12.88;;;;;;;;;;4914663;29;20024;-69
2021/09/21 05:23:59;;;;;;;18.52;12.65;;;;;;;;;;4914519;29;20123;-65
2021/09/21 05:26:25;;;;;;;17.65;12.65;;;;;;;;;;4914933;29;20039;-71
2021/09/21 05:28:51;;;;;;;17.02;12.32;;;;;;;;;;4914645;29;20040;-68
2021/09/21 05:31:17;;;;;;;19.23;12.10;;;;;;;;;;4914670;29;20028;-63
2021/09/21 05:33:43;;;;;;;21.02;14.13;;;;;;;;;;4914703;29;20047;-67
2021/09/21 05:36:09;;;;;;;20.35;13.60;;;;;;;;;;4914846;29;20059;-81
2021/09/21 05:38:35;;;;;;;20.42;13.35;;;;;;;;;;4914908;29;20083;-75
2021/09/21 05:41:01;;;;;;;18.92;12.75;;;;;;;;;;4914567;29;20047;-81
2021/09/21 05:43:27;;;;;;;18.17;12.23;;;;;;;;;;4915000;29;20384;-67
2021/09/21 05:45:53;;;;;;;16.70;11.85;;;;;;;;;;4914592;29;20039;-68
2021/09/21 05:48:19;;;;;;;17.55;12.77;;;;;;;;;;4914275;29;20114;-61
2021/09/21 05:50:45;;;;;;;17.38;11.70;;;;;;;;;;4914458;29;20115;-69
2021/09/21 05:53:11;;;;;;;17.13;11.77;;;;;;;;;;4913999;29;20088;-68
2021/09/21 05:55:37;;;;;;;15.98;10.75;;;;;;;;;;4914779;29;20036;-62
2021/09/21 05:58:03;;;;;;;14.93;10.20;;;;;;;;;;4914486;29;20032;-64
2021/09/21 06:00:31;;;;;;;14.18;9.68;;;;;;;;;;4914811;29;20030;-80
2021/09/21 06:02:57;;;;;;;19.52;11.85;;;;;;;;;;4914524;29;20016;-64
2021/09/21 06:05:24;;;;;;;16.20;9.60;;;;;;;;;;4914027;29;20044;-67
2021/09/21 06:07:51;;;;;;;13.80;9.85;;;;;;;;;;4914866;29;20020;-65
2021/09/21 06:10:21;;;;;;;12.65;8.80;;;;;;;;;;4914678;29;20127;-65
2021/09/21 06:12:48;;;;;;;15.45;9.93;;;;;;;;;;4914535;29;20028;-64
2021/09/21 06:15:14;;;;;;;15.00;9.95;;;;;;;;;;4914450;29;20063;-65
2021/09/21 06:17:41;;;;;;;14.98;9.50;;;;;;;;;;4914216;29;20409;-67
2021/09/21 06:20:09;;;;;;;11.35;8.40;;;;;;;;;;4916130;29;20032;-65
2021/09/21 06:22:36;;;;;;;15.48;9.27;;;;;;;;;;4917857;29;20503;-64
2021/09/21 06:25:03;;;;;;;12.82;8.35;;;;;;;;;;4917831;29;20036;-64
2021/09/21 06:27:29;;;;;;;16.35;8.48;;;;;;;;;;4917398;29;20116;-67
2021/09/21 06:29:55;;;;;;;11.20;8.20;;;;;;;;;;4900656;29;20040;-63
2021/09/21 06:32:21;;;;;;;12.85;8.00;;;;;;;;;;4917475;29;20036;-67
2021/09/21 06:34:47;;;;;;;11.60;8.38;;;;;;;;;;4917169;29;20052;-77
2021/09/21 06:37:14;;;;;;;18.67;9.52;;;;;;;;;;4917321;29;20558;-63
2021/09/21 06:39:41;;;;;;;15.18;8.75;;;;;;;;;;4917527;29;20039;-66
2021/09/21 06:42:07;;;;;;;12.23;8.35;;;;;;;;;;4917044;29;20477;-72
2021/09/21 06:44:33;;;;;;;13.88;8.20;;;;;;;;;;4918059;29;20059;-67
2021/09/21 06:46:59;;;;;;;15.20;7.97;;;;;;;;;;4917599;29;20167;-65
2021/09/21 06:49:25;;;;;;;12.50;8.35;;;;;;;;;;4917452;29;20039;-64
2021/09/21 06:51:51;;;;;;;12.30;8.40;;;;;;;;;;4917444;29;20110;-78
2021/09/21 06:54:17;;;;;;;13.20;8.52;;;;;;;;;;4917124;29;20388;-77
2021/09/21 06:56:43;;;;;;;13.98;9.05;;;;;;;;;;4917196;29;20115;-76
2021/09/21 06:59:09;;;;;;;14.48;9.10;;;;;;;;;;4917272;29;20039;-71
2021/09/21 07:01:35;;;;;;;14.23;10.05;;;;;;;;;;4917131;29;20032;-77
2021/09/21 07:04:01;;;;;;;14.95;10.68;;;;;;;;;;4916856;29;20028;-68
2021/09/21 07:06:27;;;;;;;14.77;10.85;;;;;;;;;;4917102;29;20117;-66
2021/09/21 07:08:53;;;;;;;16.10;11.63;;;;;;;;;;4916920;29;20035;-62
2021/09/21 07:11:21;;;;;;;18.80;12.05;;;;;;;;;;4916402;29;20028;-72
2021/09/21 07:13:47;;;;;;;17.55;11.75;;;;;;;;;;4916648;29;20024;-63
2021/09/21 07:16:13;;;;;;;18.77;12.88;;;;;;;;;;4916618;29;20063;-71
2021/09/21 07:18:39;;;;;;;19.45;12.07;;;;;;;;;;4916341;29;20388;-62
2021/09/21 07:21:06;;;;;;;18.13;12.10;;;;;;;;;;4916641;29;20465;-63
2021/09/21 07:23:32;;;;;;;16.42;11.52;;;;;;;;;;4915112;29;20028;-66
2021/09/21 07:25:59;;;;;;;18.10;11.73;;;;;;;;;;4914807;29;20053;-67
2021/09/21 07:28:25;;;;;;;16.23;11.40;;;;;;;;;;4914942;29;20098;-70
2021/09/21 07:30:51;;;;;;;17.15;11.68;;;;;;;;;;4915360;29;20032;-68
2021/09/21 07:33:17;;;;;;;15.65;11.00;;;;;;;;;;4916121;29;20029;-65
2021/09/21 07:35:43;;;;;;;15.80;11.77;;;;;;;;;;4897203;29;20045;-62
2021/09/21 07:38:10;;;;;;;15.40;11.73;;;;;;;;;;4913989;29;20059;-69
2021/09/21 07:40:36;;;;;;;16.98;12.40;;;;;;;;;;4916132;29;20115;-66
2021/09/21 07:43:03;;;;;;;21.23;12.27;;;;;;;;;;4913344;29;20035;-62
2021/09/21 07:45:29;;;;;;;37.35;22.00;;;;;;;;;;4915692;29;20032;-69
2021/09/21 07:47:55;;;;;;;18.60;12.55;;;;;;;;;;4915064;29;20059;-65
2021/09/21 07:50:23;;;;;;;19.60;11.57;;;;;;;;;;4915520;29;20032;-68
2021/09/21 07:52:49;;;;;;;17.52;11.50;;;;;;;;;;4915422;29;20036;-62
2021/09/21 07:55:15;;;;;;;17.52;11.65;;;;;;;;;;4915423;29;20491;-72
2021/09/21 07:57:41;;;;;;;21.08;14.23;;;;;;;;;;4915441;29;20091;-66
2021/09/21 08:00:08;;;;;;;20.70;13.20;;;;;;;;;;4915703;29;20071;-69
2021/09/21 08:02:34;;;;;;;16.83;11.77;;;;;;;;;;4915559;29;20437;-74
2021/09/21 08:05:01;;;;;;;18.63;12.75;;;;;;;;;;4915298;29;20129;-62
2021/09/21 08:07:29;;;;;;;19.15;13.40;;;;;;;;;;4913046;29;20031;-64
2021/09/21 08:09:58;;;;;;;19.60;13.75;;;;;;;;;;4914964;29;20028;-70
2021/09/21 08:12:24;;;;;;;20.20;13.75;;;;;;;;;;4915445;29;20020;-61
2021/09/21 08:14:50;;;;;;;17.67;13.30;;;;;;;;;;4915285;29;20036;-61
2021/09/21 08:17:17;;;;;;;16.75;13.25;;;;;;;;;;4912595;29;20024;-62
2021/09/21 08:19:43;;;;;;;18.55;13.45;;;;;;;;;;4915366;29;20543;-62
2021/09/21 08:22:09;;;;;;;16.65;13.18;;;;;;;;;;4915257;29;20476;-62
2021/09/21 08:24:35;;;;;;;17.05;12.38;;;;;;;;;;4912122;29;20499;-65
2021/09/21 08:27:01;;;;;;;15.90;12.20;;;;;;;;;;4914650;29;20035;-62
2021/09/21 08:29:28;;;;;;;17.83;12.95;;;;;;;;;;4914842;29;20028;-61
2021/09/21 08:31:54;;;;;;;17.67;13.13;;;;;;;;;;4914451;29;20032;-61
2021/09/21 08:34:20;;;;;;;19.13;12.57;;;;;;;;;;4914168;29;20036;-61
2021/09/21 08:36:49;;;;;;;15.23;11.52;;;;;;;;;;4914868;29;20488;-61
2021/09/21 08:39:15;;;;;;;15.38;12.07;;;;;;;;;;4914845;29;20477;-61
2021/09/21 08:41:41;;;;;;;16.58;13.05;;;;;;;;;;4914417;29;20059;-62
2021/09/21 08:44:09;;;;;;;17.05;12.52;;;;;;;;;;4914802;29;20038;-62
2021/09/21 08:46:36;;;;;;;16.92;11.95;;;;;;;;;;4914756;29;20020;-62
2021/09/21 08:49:02;;;;;;;17.23;12.10;;;;;;;;;;4914850;29;20044;-62
2021/09/21 08:51:28;;;;;;;15.43;11.77;;;;;;;;;;4913858;29;20040;-65
2021/09/21 08:53:54;;;;;;;15.80;11.48;;;;;;;;;;4914023;29;20036;-62
2021/09/21 08:56:21;;;;;;;18.27;11.00;;;;;;;;;;4914268;29;20484;-61
2021/09/21 08:58:58;;;;;;;14.80;11.90;;;;;;;;;;4914249;29;20532;-61
2021/09/21 09:01:24;;;;;;;17.52;11.43;;;;;;;;;;4914505;29;20107;-61
2021/09/21 09:03:57;;;;;;;17.08;11.13;;;;;;;;;;4913639;29;20506;-61
2021/09/21 09:06:24;;;;;;;14.68;10.73;;;;;;;;;;4913823;29;20064;-62
2021/09/21 09:08:50;;;;;;;15.32;10.07;;;;;;;;;;4914684;29;20036;-61
2021/09/21 09:11:16;;;;;;;15.95;10.85;;;;;;;;;;4914437;29;20028;-61
2021/09/21 09:13:43;;;;;;;13.55;10.18;;;;;;;;;;4913774;29;20039;-61
2021/09/21 09:16:15;;;;;;;15.25;11.18;;;;;;;;;;4911090;29;20407;-60
2021/09/21 09:18:42;;;;;;;13.82;10.30;;;;;;;;;;4913360;29;20024;-63
2021/09/21 09:21:09;;;;;;;15.85;11.43;;;;;;;;;;4910584;29;20392;-61
2021/09/21 09:23:36;;;;;;;14.98;9.95;;;;;;;;;;4913300;29;20429;-73
2021/09/21 09:26:02;;;;;;;15.23;10.57;;;;;;;;;;4913721;29;20143;-62
2021/09/21 09:28:28;;;;;;;17.80;10.63;;;;;;;;;;4910277;29;20313;-60
2021/09/21 09:30:55;;;;;;;14.23;10.35;;;;;;;;;;4913336;29;20024;-62
2021/09/21 09:33:21;;;;;;;15.15;10.45;;;;;;;;;;4913465;29;20021;-62
2021/09/21 09:35:49;;;;;;;13.85;10.13;;;;;;;;;;4913059;29;20043;-61
2021/09/21 09:38:16;;;;;;;13.93;10.07;;;;;;;;;;4913038;29;20055;-62
2021/09/21 09:40:45;;;;;;;20.55;11.15;;;;;;;;;;4912968;29;20100;-63
2021/09/21 09:43:11;;;;;;;14.32;10.27;;;;;;;;;;4911258;29;20107;-63
2021/09/21 09:45:41;;;;;;;15.98;10.68;;;;;;;;;;4913728;29;20421;-62
2021/09/21 09:48:07;;;;;;;15.00;10.77;;;;;;;;;;4913173;29;20076;-63
2021/09/21 09:50:34;;;;;;;17.67;11.90;;;;;;;;;;4912818;29;20016;-60
2021/09/21 09:53:12;;;;;;;16.83;10.95;;;;;;;;;;4913008;29;20036;-60
2021/09/21 09:55:44;;;;;;;16.13;11.00;;;;;;;;;;4915017;29;20040;-61
2021/09/21 09:58:10;;;;;;;17.23;10.88;;;;;;;;;;4914498;29;20032;-59
2021/09/21 10:00:36;;;;;;;16.08;11.10;;;;;;;;;;4917029;29;20071;-60
2021/09/21 10:03:03;;;;;;;20.85;10.98;;;;;;;;;;4916548;29;20028;-60
2021/09/21 10:05:30;;;;;;;15.65;10.75;;;;;;;;;;4913534;29;20056;-63
2021/09/21 10:07:57;;;;;;;16.33;10.70;;;;;;;;;;4916583;29;20051;-59
2021/09/21 10:10:24;;;;;;;16.27;10.32;;;;;;;;;;4916944;29;20433;-61
2021/09/21 10:12:51;;;;;;;16.08;10.90;;;;;;;;;;4917579;29;20484;-59
2021/09/21 10:15:17;;;;;;;15.98;11.60;;;;;;;;;;4916964;29;20048;-61
2021/09/21 10:17:50;;;;;;;16.67;9.77;;;;;;;;;;4914897;29;20091;-63
2021/09/21 10:20:16;;;;;;;16.25;10.55;;;;;;;;;;4916954;29;20032;-60
2021/09/21 10:22:50;;;;;;;13.93;9.98;;;;;;;;;;4917222;29;20032;-60
2021/09/21 10:25:16;;;;;;;33.13;16.02;;;;;;;;;;4917202;29;20036;-60
2021/09/21 10:27:42;;;;;;;19.20;10.05;;;;;;;;;;4917045;29;20028;-60
2021/09/21 10:30:10;;;;;;;21.52;11.18;;;;;;;;;;4917214;29;20103;-63
2021/09/21 10:32:43;;;;;;;17.38;9.52;;;;;;;;;;4917155;29;20021;-60
2021/09/21 10:35:10;;;;;;;17.15;10.18;;;;;;;;;;4914939;29;20646;-60
2021/09/21 10:37:36;;;;;;;15.60;9.48;;;;;;;;;;4916854;29;20028;-60
2021/09/21 10:40:04;;;;;;;12.57;8.60;;;;;;;;;;4914890;29;20063;-60
2021/09/21 10:42:30;;;;;;;23.38;12.73;;;;;;;;;;4916477;29;20448;-64
2021/09/21 10:44:58;;;;;;;16.23;10.05;;;;;;;;;;4916547;29;20028;-68
2021/09/21 10:47:28;;;;;;;13.73;8.73;;;;;;;;;;4916863;29;20016;-59
2021/09/21 10:50:08;;;;;;;13.45;7.82;;;;;;;;;;4916879;29;20032;-61
2021/09/21 10:52:34;;;;;;;13.25;8.13;;;;;;;;;;4914791;29;20028;-60
2021/09/21 10:55:00;;;;;;;14.43;8.45;;;;;;;;;;4916814;29;20111;-59
2021/09/21 10:57:28;;;;;;;25.30;13.63;;;;;;;;;;4914402;29;20024;-61
2021/09/21 11:00:15;;;;;;;15.68;8.45;;;;;;;;;;4917113;29;20028;-59
2021/09/21 11:02:45;;;;;;;15.25;8.40;;;;;;;;;;4916043;29;20067;-60
2021/09/21 11:05:15;;;;;;;11.73;7.78;;;;;;;;;;4916100;29;20376;-59
2021/09/21 11:07:49;;;;;;;13.52;8.65;;;;;;;;;;4915975;29;20387;-59
2021/09/21 11:10:17;;;;;;;14.05;8.13;;;;;;;;;;4916804;29;20032;-61
2021/09/21 11:12:48;;;;;;;11.52;7.57;;;;;;;;;;4916277;29;20032;-61
2021/09/21 11:15:15;;;;;;;10.38;5.53;;;;;;;;;;4915888;29;20052;-59
2021/09/21 11:17:41;;;;;;;8.02;5.60;;;;;;;;;;4915568;29;20032;-69
2021/09/21 11:20:07;;;;;;;10.18;5.95;;;;;;;;;;4916228;29;20028;-58
2021/09/21 11:22:36;;;;;;;9.98;6.32;;;;;;;;;;4915781;29;20025;-65
2021/09/21 11:25:12;;;;;;;11.63;7.75;;;;;;;;;;4915459;29;20020;-59
2021/09/21 11:27:40;;;;;;;10.77;6.72;;;;;;;;;;4915701;29;20035;-60
2021/09/21 11:30:12;;;;;;;10.65;6.07;;;;;;;;;;4915621;29;20030;-59
2021/09/21 11:32:38;;;;;;;10.95;6.85;;;;;;;;;;4915927;29;20377;-59
2021/09/21 11:35:07;;;;;;;10.60;6.63;;;;;;;;;;4915315;29;20047;-59
2021/09/21 11:37:33;;;;;;;13.73;7.40;;;;;;;;;;4915908;29;20048;-59
2021/09/21 11:39:59;;;;;;;12.07;7.00;;;;;;;;;;4915644;29;20392;-60
2021/09/21 11:42:29;;;;;;;12.68;7.60;;;;;;;;;;4915978;29;20035;-59
2021/09/21 11:45:02;;;;;;;10.15;7.03;;;;;;;;;;4915681;29;20032;-60
2021/09/21 11:47:35;;;;;;;11.90;7.38;;;;;;;;;;4915683;29;20103;-62
2021/09/21 11:50:01;;;;;;;10.75;6.78;;;;;;;;;;4915941;29;20116;-60
2021/09/21 11:52:27;;;;;;;12.93;7.53;;;;;;;;;;4915356;29;20076;-59
2021/09/21 11:54:53;;;;;;;13.20;7.05;;;;;;;;;;4915518;29;20115;-61
2021/09/21 11:57:20;;;;;;;13.80;7.30;;;;;;;;;;4916134;29;20032;-60
2021/09/21 11:59:47;;;;;;;12.02;7.30;;;;;;;;;;4914788;29;20040;-60
2021/09/21 12:02:18;;;;;;;12.43;6.65;;;;;;;;;;4914662;29;20031;-59
2021/09/21 12:04:44;;;;;;;13.13;7.57;;;;;;;;;;4914734;29;20096;-63
2021/09/21 12:07:11;;;;;;;10.82;7.50;;;;;;;;;;4912015;29;20095;-71
2021/09/21 12:09:37;;;;;;;10.20;7.03;;;;;;;;;;4914495;29;20499;-60
2021/09/21 12:12:11;;;;;;;12.35;7.25;;;;;;;;;;4914745;29;20047;-60
2021/09/21 12:14:38;;;;;;;9.60;6.28;;;;;;;;;;4912925;29;20028;-65
2021/09/21 12:17:04;;;;;;;9.32;6.93;;;;;;;;;;4914130;29;20556;-60
2021/09/21 12:19:30;;;;;;;9.70;6.40;;;;;;;;;;4914372;29;20071;-59
2021/09/21 12:21:59;;;;;;;11.13;6.75;;;;;;;;;;4914262;29;20020;-60
2021/09/21 12:24:32;;;;;;;14.93;6.75;;;;;;;;;;4914376;29;20118;-60
2021/09/21 12:27:05;;;;;;;10.35;6.38;;;;;;;;;;4914503;29;20027;-60
2021/09/21 12:29:34;;;;;;;8.88;5.50;;;;;;;;;;4911655;29;20052;-60
2021/09/21 12:32:01;;;;;;;8.50;5.25;;;;;;;;;;4914412;29;20030;-59
2021/09/21 12:34:34;;;;;;;9.07;5.20;;;;;;;;;;4914105;29;20044;-59
2021/09/21 12:37:01;;;;;;;9.65;5.18;;;;;;;;;;4914421;29;20020;-60
2021/09/21 12:39:31;;;;;;;7.82;3.90;;;;;;;;;;4914323;29;20103;-59
2021/09/21 12:42:00;;;;;;;4.78;2.75;;;;;;;;;;4914428;29;20029;-60
2021/09/21 12:44:26;;;;;;;4.90;2.90;;;;;;;;;;4913678;29;20087;-59
2021/09/21 12:46:53;;;;;;;5.00;3.10;;;;;;;;;;4914859;29;20020;-60
2021/09/21 12:49:19;;;;;;;7.28;2.70;;;;;;;;;;4914510;29;20390;-58
2021/09/21 12:51:47;;;;;;;6.93;2.53;;;;;;;;;;4913603;29;20016;-64
2021/09/21 12:54:18;;;;;;;3.88;2.53;;;;;;;;;;4914690;29;20028;-66
2021/09/21 12:56:46;;;;;;;5.25;2.67;;;;;;;;;;4914375;29;20055;-60
2021/09/21 12:59:13;;;;;;;5.82;2.88;;;;;;;;;;4913645;29;20035;-60
2021/09/21 13:01:41;;;;;;;4.10;2.60;;;;;;;;;;4880674;29;20403;-63
2021/09/21 13:04:07;;;;;;;6.13;2.47;;;;;;;;;;4911289;29;20019;-60
2021/09/21 13:06:33;;;;;;;7.55;2.72;;;;;;;;;;4913553;29;20044;-60
2021/09/21 13:08:59;;;;;;;4.90;2.33;;;;;;;;;;4914203;29;20115;-59
2021/09/21 13:11:25;;;;;;;4.95;2.40;;;;;;;;;;4914364;29;20024;-60
2021/09/21 13:13:51;;;;;;;4.45;2.45;;;;;;;;;;4913219;29;20043;-61
2021/09/21 13:16:18;;;;;;;4.15;2.75;;;;;;;;;;4913116;29;20055;-61
2021/09/21 13:18:44;;;;;;;6.20;3.00;;;;;;;;;;4912909;29;20030;-61
2021/09/21 13:21:10;;;;;;;5.13;2.70;;;;;;;;;;4912733;29;21060;-64
2021/09/21 13:23:36;;;;;;;4.45;2.63;;;;;;;;;;4913221;29;20369;-61
2021/09/21 13:26:03;;;;;;;4.40;2.40;;;;;;;;;;4911882;29;20024;-60
2021/09/21 13:28:29;;;;;;;4.07;2.58;;;;;;;;;;4911810;29;20465;-60
2021/09/21 13:30:55;;;;;;;4.90;2.65;;;;;;;;;;4912472;29;20032;-58
2021/09/21 13:33:22;;;;;;;9.05;3.08;;;;;;;;;;4911517;29;20445;-61
2021/09/21 13:35:49;;;;;;;7.57;3.63;;;;;;;;;;4908476;29;20040;-60
2021/09/21 13:38:15;;;;;;;6.97;3.10;;;;;;;;;;4910481;29;20036;-60
2021/09/21 13:40:41;;;;;;;7.65;3.50;;;;;;;;;;4913266;29;20476;-68
2021/09/21 13:43:08;;;;;;;12.68;4.05;;;;;;;;;;4913435;29;20039;-58
2021/09/21 13:45:34;;;;;;;7.13;3.83;;;;;;;;;;4913207;29;20575;-68
2021/09/21 13:48:00;;;;;;;8.25;4.57;;;;;;;;;;4912887;29;20032;-58
2021/09/21 13:50:27;;;;;;;7.55;3.40;;;;;;;;;;4913213;29;20032;-67
2021/09/21 13:52:53;;;;;;;5.00;3.15;;;;;;;;;;4913142;29;20107;-58
2021/09/21 13:55:20;;;;;;;4.60;2.90;;;;;;;;;;4910399;29;20046;-59
2021/09/21 13:57:47;;;;;;;6.72;2.92;;;;;;;;;;4913045;29;20031;-59
2021/09/21 14:00:14;;;;;;;5.40;2.60;;;;;;;;;;4912878;29;20044;-63
2021/09/21 14:02:41;;;;;;;4.57;2.88;;;;;;;;;;4910623;29;20031;-59
2021/09/21 14:05:08;;;;;;;5.65;2.97;;;;;;;;;;4910549;29;20044;-59
2021/09/21 14:07:34;;;;;;;4.97;2.50;;;;;;;;;;4912817;29;20693;-64
2021/09/21 14:10:00;;;;;;;4.63;2.53;;;;;;;;;;4910816;29;20061;-60
2021/09/21 14:12:27;;;;;;;5.35;2.80;;;;;;;;;;4912569;29;20063;-60
2021/09/21 14:14:53;;;;;;;4.70;3.15;;;;;;;;;;4895204;29;20048;-59
2021/09/21 14:17:20;;;;;;;8.45;4.50;;;;;;;;;;4910196;29;20076;-61
2021/09/21 14:19:46;;;;;;;5.70;3.33;;;;;;;;;;4912973;29;20044;-60
2021/09/21 14:22:12;;;;;;;6.38;3.10;;;;;;;;;;4912340;29;20131;-60
2021/09/21 14:24:40;;;;;;;6.57;2.83;;;;;;;;;;4912663;29;20465;-59
2021/09/21 14:27:07;;;;;;;7.00;2.95;;;;;;;;;;4912638;29;20027;-62
2021/09/21 14:29:33;;;;;;;5.55;2.85;;;;;;;;;;4912336;29;20044;-62
2021/09/21 14:32:00;;;;;;;9.85;3.53;;;;;;;;;;4912825;29;20032;-59
2021/09/21 14:34:26;;;;;;;5.07;3.00;;;;;;;;;;4912422;29;20040;-58
2021/09/21 14:36:54;;;;;;;5.70;3.33;;;;;;;;;;4911849;29;20024;-63
2021/09/21 14:39:20;;;;;;;4.72;2.78;;;;;;;;;;4910361;29;20047;-65
2021/09/21 14:41:47;;;;;;;6.43;3.33;;;;;;;;;;4915414;29;20032;-60